KBOW/BOW METAR and TAF weather

Enter ICAO airport designator
Station Type Date Time Source
KBOW METAR 2022/12/05 14:50 UTC NOAA

KBOW 051450Z 04004KT 8SM SKC 23/18 A3014


Station Type Date Time Source
KBOW Decoded METAR 2022/12/05 14:50 UTC NOAA

Bartow Municipal, FL, United States (KBOW) 27-57N 081-47W
Dec 05, 2022 - 09:50 AM EST / 2022.12.05 1450 UTC
Wind: from the NE (040 degrees) at 5 MPH (4 KT):0
Visibility: 8 mile(s):0
Sky conditions: clear
Temperature: 73 F (23 C)
Dew Point: 64 F (18 C)
Relative Humidity: 73%
Pressure (altimeter): 30.14 in. Hg (1020 hPa)
ob: KBOW 051450Z 04004KT 8SM SKC 23/18 A3014
cycle: 15

Station Type Date Time Source
KBOW TAF UTC NOAA

Error!

Example: see airport list